Terminal Aerodrome Forecast
Issued by NWS

Home | Current Version | Previous Version | Graphics & Text | Print | Product List | Glossary On
Versions: 1 2 3 4 5 6 7 8 9 10 11 12 13 14 15 16 17 18 19 20 21 22 23 24 25 26 27 28 29 30 31 32 33 34 35 36
000
FTUS43 KLOT 250641 AAA
TAFMDW
TAF AMD
KMDW 250641Z 2507/2606 19013G20KT P6SM VCSH SCT040 OVC080
     FM251000 19020G30KT P6SM VCSH SCT020 BKN035
     FM251400 23023G34KT P6SM SCT035
     FM252000 23018G28KT P6SM SCT040=

USA.gov is the U.S. government's official web portal to all federal, state and local government web resources and services.